sensor_id;sensor_type;location;lat;lon;timestamp;P1;durP1;ratioP1;P2;durP2;ratioP2
2023;SDS011;1016;48.770;9.154;2023-02-15T00:00:11;37.20;;;17.67;;
2023;SDS011;1016;48.770;9.154;2023-02-15T00:02:37;35.60;;;18.10;;
2023;SDS011;1016;48.770;9.154;2023-02-15T00:05:03;35.77;;;18.00;;
2023;SDS011;1016;48.770;9.154;2023-02-15T00:07:29;34.53;;;18.23;;
2023;SDS011;1016;48.770;9.154;2023-02-15T00:09:54;34.07;;;16.23;;
2023;SDS011;1016;48.770;9.154;2023-02-15T00:12:20;35.70;;;18.07;;
2023;SDS011;1016;48.770;9.154;2023-02-15T00:14:45;36.30;;;17.80;;
2023;SDS011;1016;48.770;9.154;2023-02-15T00:17:12;37.13;;;17.27;;
2023;SDS011;1016;48.770;9.154;2023-02-15T00:19:37;33.70;;;16.27;;
2023;SDS011;1016;48.770;9.154;2023-02-15T00:22:03;33.30;;;16.60;;
2023;SDS011;1016;48.770;9.154;2023-02-15T00:24:28;33.30;;;16.77;;
2023;SDS011;1016;48.770;9.154;2023-02-15T00:26:54;33.47;;;16.40;;
2023;SDS011;1016;48.770;9.154;2023-02-15T00:29:20;32.43;;;16.50;;
2023;SDS011;1016;48.770;9.154;2023-02-15T00:31:46;34.80;;;17.30;;
2023;SDS011;1016;48.770;9.154;2023-02-15T00:34:16;34.73;;;17.00;;
2023;SDS011;1016;48.770;9.154;2023-02-15T00:36:43;33.80;;;16.80;;
2023;SDS011;1016;48.770;9.154;2023-02-15T00:39:10;36.70;;;17.07;;
2023;SDS011;1016;48.770;9.154;2023-02-15T00:41:36;34.70;;;16.60;;
2023;SDS011;1016;48.770;9.154;2023-02-15T00:44:01;35.37;;;16.87;;
2023;SDS011;1016;48.770;9.154;2023-02-15T00:46:27;33.93;;;16.00;;
2023;SDS011;1016;48.770;9.154;2023-02-15T00:48:53;35.10;;;16.50;;
2023;SDS011;1016;48.770;9.154;2023-02-15T00:51:18;34.90;;;16.40;;
2023;SDS011;1016;48.770;9.154;2023-02-15T00:53:45;32.60;;;15.87;;
2023;SDS011;1016;48.770;9.154;2023-02-15T00:56:11;33.60;;;15.73;;
2023;SDS011;1016;48.770;9.154;2023-02-15T00:58:37;34.97;;;16.43;;
2023;SDS011;1016;48.770;9.154;2023-02-15T01:01:03;36.87;;;17.17;;
2023;SDS011;1016;48.770;9.154;2023-02-15T01:03:31;34.70;;;16.07;;
2023;SDS011;1016;48.770;9.154;2023-02-15T01:05:56;33.57;;;16.20;;
2023;SDS011;1016;48.770;9.154;2023-02-15T01:08:21;33.70;;;16.73;;
2023;SDS011;1016;48.770;9.154;2023-02-15T01:10:47;32.93;;;16.37;;
2023;SDS011;1016;48.770;9.154;2023-02-15T01:13:14;37.17;;;17.17;;
2023;SDS011;1016;48.770;9.154;2023-02-15T01:15:41;35.43;;;17.27;;
2023;SDS011;1016;48.770;9.154;2023-02-15T01:18:07;33.70;;;16.53;;
2023;SDS011;1016;48.770;9.154;2023-02-15T01:20:34;36.27;;;17.70;;
2023;SDS011;1016;48.770;9.154;2023-02-15T01:23:03;34.70;;;16.60;;
2023;SDS011;1016;48.770;9.154;2023-02-15T01:25:29;33.77;;;17.03;;
2023;SDS011;1016;48.770;9.154;2023-02-15T01:27:55;37.87;;;18.27;;
2023;SDS011;1016;48.770;9.154;2023-02-15T01:30:20;35.60;;;17.40;;
2023;SDS011;1016;48.770;9.154;2023-02-15T01:32:46;38.37;;;18.50;;
2023;SDS011;1016;48.770;9.154;2023-02-15T01:35:11;35.10;;;16.93;;
2023;SDS011;1016;48.770;9.154;2023-02-15T01:37:37;34.60;;;16.70;;
2023;SDS011;1016;48.770;9.154;2023-02-15T01:40:03;36.60;;;17.70;;
2023;SDS011;1016;48.770;9.154;2023-02-15T01:42:31;37.20;;;17.30;;
2023;SDS011;1016;48.770;9.154;2023-02-15T01:45:01;35.00;;;17.07;;
2023;SDS011;1016;48.770;9.154;2023-02-15T01:47:41;33.90;;;16.87;;
2023;SDS011;1016;48.770;9.154;2023-02-15T01:50:14;36.70;;;16.60;;
2023;SDS011;1016;48.770;9.154;2023-02-15T01:52:56;34.07;;;16.70;;
2023;SDS011;1016;48.770;9.154;2023-02-15T01:55:27;35.93;;;17.00;;
2023;SDS011;1016;48.770;9.154;2023-02-15T01:57:57;35.37;;;16.50;;
2023;SDS011;1016;48.770;9.154;2023-02-15T02:00:23;34.80;;;16.70;;
2023;SDS011;1016;48.770;9.154;2023-02-15T02:02:49;34.27;;;17.23;;
2023;SDS011;1016;48.770;9.154;2023-02-15T02:05:18;34.03;;;16.67;;
2023;SDS011;1016;48.770;9.154;2023-02-15T02:07:44;35.83;;;17.60;;
2023;SDS011;1016;48.770;9.154;2023-02-15T02:10:13;35.67;;;17.27;;
2023;SDS011;1016;48.770;9.154;2023-02-15T02:12:42;34.37;;;17.03;;
2023;SDS011;1016;48.770;9.154;2023-02-15T02:15:09;35.30;;;17.27;;
2023;SDS011;1016;48.770;9.154;2023-02-15T02:29:13;35.83;;;16.97;;
2023;SDS011;1016;48.770;9.154;2023-02-15T02:35:02;33.90;;;16.17;;
2023;SDS011;1016;48.770;9.154;2023-02-15T02:37:48;37.47;;;17.10;;
2023;SDS011;1016;48.770;9.154;2023-02-15T02:40:25;35.17;;;17.17;;
2023;SDS011;1016;48.770;9.154;2023-02-15T02:43:18;34.57;;;16.30;;
2023;SDS011;1016;48.770;9.154;2023-02-15T02:46:02;34.40;;;15.93;;
2023;SDS011;1016;48.770;9.154;2023-02-15T02:48:33;34.80;;;15.90;;
2023;SDS011;1016;48.770;9.154;2023-02-15T02:51:00;37.53;;;16.43;;
2023;SDS011;1016;48.770;9.154;2023-02-15T02:53:27;35.07;;;15.33;;
2023;SDS011;1016;48.770;9.154;2023-02-15T02:55:59;35.43;;;16.97;;
2023;SDS011;1016;48.770;9.154;2023-02-15T03:00:57;37.87;;;16.93;;
2023;SDS011;1016;48.770;9.154;2023-02-15T03:03:36;35.13;;;15.97;;
2023;SDS011;1016;48.770;9.154;2023-02-15T03:06:04;34.80;;;16.50;;
2023;SDS011;1016;48.770;9.154;2023-02-15T03:08:40;32.70;;;15.50;;
2023;SDS011;1016;48.770;9.154;2023-02-15T03:11:09;41.60;;;17.93;;
2023;SDS011;1016;48.770;9.154;2023-02-15T03:13:36;34.97;;;16.77;;
2023;SDS011;1016;48.770;9.154;2023-02-15T03:16:02;40.90;;;16.43;;
2023;SDS011;1016;48.770;9.154;2023-02-15T03:18:49;33.57;;;16.60;;
2023;SDS011;1016;48.770;9.154;2023-02-15T03:21:22;35.33;;;16.43;;
2023;SDS011;1016;48.770;9.154;2023-02-15T03:23:53;32.17;;;16.13;;
2023;SDS011;1016;48.770;9.154;2023-02-15T03:26:23;35.23;;;15.97;;
2023;SDS011;1016;48.770;9.154;2023-02-15T03:28:49;34.97;;;16.93;;
2023;SDS011;1016;48.770;9.154;2023-02-15T03:31:17;34.97;;;16.23;;
2023;SDS011;1016;48.770;9.154;2023-02-15T03:33:52;34.80;;;16.83;;
2023;SDS011;1016;48.770;9.154;2023-02-15T03:36:29;34.27;;;16.20;;
2023;SDS011;1016;48.770;9.154;2023-02-15T03:42:06;33.23;;;15.37;;
2023;SDS011;1016;48.770;9.154;2023-02-15T03:44:42;35.00;;;15.53;;
2023;SDS011;1016;48.770;9.154;2023-02-15T03:47:25;35.10;;;15.93;;
2023;SDS011;1016;48.770;9.154;2023-02-15T03:49:59;34.47;;;14.50;;
2023;SDS011;1016;48.770;9.154;2023-02-15T03:52:29;35.37;;;14.70;;
2023;SDS011;1016;48.770;9.154;2023-02-15T03:54:57;32.57;;;15.00;;
2023;SDS011;1016;48.770;9.154;2023-02-15T03:57:24;32.60;;;15.23;;
2023;SDS011;1016;48.770;9.154;2023-02-15T04:00:21;32.87;;;15.43;;
2023;SDS011;1016;48.770;9.154;2023-02-15T04:03:12;35.23;;;14.60;;
2023;SDS011;1016;48.770;9.154;2023-02-15T04:05:47;33.00;;;15.27;;
2023;SDS011;1016;48.770;9.154;2023-02-15T04:08:13;32.97;;;15.10;;
2023;SDS011;1016;48.770;9.154;2023-02-15T04:10:38;33.40;;;15.50;;
2023;SDS011;1016;48.770;9.154;2023-02-15T04:13:29;32.17;;;15.30;;
2023;SDS011;1016;48.770;9.154;2023-02-15T04:15:56;34.70;;;15.03;;
2023;SDS011;1016;48.770;9.154;2023-02-15T04:18:31;35.33;;;15.10;;
2023;SDS011;1016;48.770;9.154;2023-02-15T04:21:18;32.37;;;15.43;;
2023;SDS011;1016;48.770;9.154;2023-02-15T04:24:03;34.60;;;15.40;;
2023;SDS011;1016;48.770;9.154;2023-02-15T04:26:47;31.73;;;14.20;;
2023;SDS011;1016;48.770;9.154;2023-02-15T04:29:13;31.60;;;14.40;;
2023;SDS011;1016;48.770;9.154;2023-02-15T04:31:40;35.50;;;16.47;;
2023;SDS011;1016;48.770;9.154;2023-02-15T04:34:06;32.87;;;15.50;;
2023;SDS011;1016;48.770;9.154;2023-02-15T04:36:31;34.13;;;15.93;;
2023;SDS011;1016;48.770;9.154;2023-02-15T04:38:57;39.13;;;16.47;;
2023;SDS011;1016;48.770;9.154;2023-02-15T04:41:23;34.47;;;15.67;;
2023;SDS011;1016;48.770;9.154;2023-02-15T04:43:49;37.67;;;16.13;;
2023;SDS011;1016;48.770;9.154;2023-02-15T04:46:14;33.40;;;15.20;;
2023;SDS011;1016;48.770;9.154;2023-02-15T04:48:40;34.07;;;15.97;;
2023;SDS011;1016;48.770;9.154;2023-02-15T04:51:06;34.17;;;15.37;;
2023;SDS011;1016;48.770;9.154;2023-02-15T04:53:32;32.43;;;15.77;;
2023;SDS011;1016;48.770;9.154;2023-02-15T04:55:58;33.20;;;15.57;;
2023;SDS011;1016;48.770;9.154;2023-02-15T04:58:24;33.20;;;14.50;;
2023;SDS011;1016;48.770;9.154;2023-02-15T05:00:49;32.87;;;15.00;;
2023;SDS011;1016;48.770;9.154;2023-02-15T05:03:15;32.10;;;14.70;;
2023;SDS011;1016;48.770;9.154;2023-02-15T05:05:40;32.60;;;14.83;;
2023;SDS011;1016;48.770;9.154;2023-02-15T05:08:06;32.97;;;14.40;;
2023;SDS011;1016;48.770;9.154;2023-02-15T05:10:32;33.90;;;15.63;;
2023;SDS011;1016;48.770;9.154;2023-02-15T05:12:57;33.87;;;15.47;;
2023;SDS011;1016;48.770;9.154;2023-02-15T05:15:23;33.10;;;14.93;;
2023;SDS011;1016;48.770;9.154;2023-02-15T05:17:48;37.10;;;15.40;;
2023;SDS011;1016;48.770;9.154;2023-02-15T05:20:14;31.83;;;14.17;;
2023;SDS011;1016;48.770;9.154;2023-02-15T05:22:40;34.80;;;16.23;;
2023;SDS011;1016;48.770;9.154;2023-02-15T05:25:06;32.57;;;15.07;;
2023;SDS011;1016;48.770;9.154;2023-02-15T05:27:51;34.73;;;15.70;;
2023;SDS011;1016;48.770;9.154;2023-02-15T05:30:35;32.10;;;15.23;;
2023;SDS011;1016;48.770;9.154;2023-02-15T05:33:00;33.83;;;15.87;;
2023;SDS011;1016;48.770;9.154;2023-02-15T05:35:26;33.57;;;15.40;;
2023;SDS011;1016;48.770;9.154;2023-02-15T05:37:52;32.40;;;14.60;;
2023;SDS011;1016;48.770;9.154;2023-02-15T05:40:18;37.40;;;15.67;;
2023;SDS011;1016;48.770;9.154;2023-02-15T05:42:43;34.10;;;15.80;;
2023;SDS011;1016;48.770;9.154;2023-02-15T05:45:09;34.40;;;15.63;;
2023;SDS011;1016;48.770;9.154;2023-02-15T05:47:34;34.17;;;15.93;;
2023;SDS011;1016;48.770;9.154;2023-02-15T05:50:00;31.40;;;14.57;;
2023;SDS011;1016;48.770;9.154;2023-02-15T05:52:25;33.90;;;15.23;;
2023;SDS011;1016;48.770;9.154;2023-02-15T05:54:51;36.20;;;15.70;;
2023;SDS011;1016;48.770;9.154;2023-02-15T05:57:16;33.30;;;15.00;;
2023;SDS011;1016;48.770;9.154;2023-02-15T05:59:42;35.23;;;14.70;;
2023;SDS011;1016;48.770;9.154;2023-02-15T06:02:07;34.23;;;15.70;;
2023;SDS011;1016;48.770;9.154;2023-02-15T06:04:33;34.50;;;14.80;;
2023;SDS011;1016;48.770;9.154;2023-02-15T06:06:58;32.13;;;14.47;;
2023;SDS011;1016;48.770;9.154;2023-02-15T06:09:24;33.23;;;14.77;;
2023;SDS011;1016;48.770;9.154;2023-02-15T06:11:49;33.20;;;15.67;;
2023;SDS011;1016;48.770;9.154;2023-02-15T06:14:15;34.93;;;15.70;;
2023;SDS011;1016;48.770;9.154;2023-02-15T06:16:41;34.10;;;15.80;;
2023;SDS011;1016;48.770;9.154;2023-02-15T06:19:06;36.07;;;15.07;;
2023;SDS011;1016;48.770;9.154;2023-02-15T06:21:32;32.33;;;15.03;;
2023;SDS011;1016;48.770;9.154;2023-02-15T06:23:57;34.53;;;15.60;;
2023;SDS011;1016;48.770;9.154;2023-02-15T06:26:23;32.50;;;15.07;;
2023;SDS011;1016;48.770;9.154;2023-02-15T06:28:48;34.20;;;15.47;;
2023;SDS011;1016;48.770;9.154;2023-02-15T06:31:14;35.03;;;15.53;;
2023;SDS011;1016;48.770;9.154;2023-02-15T06:33:40;34.67;;;15.00;;
2023;SDS011;1016;48.770;9.154;2023-02-15T06:36:05;33.30;;;15.13;;
2023;SDS011;1016;48.770;9.154;2023-02-15T06:38:31;34.57;;;15.13;;
2023;SDS011;1016;48.770;9.154;2023-02-15T06:40:56;33.57;;;15.50;;
2023;SDS011;1016;48.770;9.154;2023-02-15T06:43:22;33.27;;;14.40;;
2023;SDS011;1016;48.770;9.154;2023-02-15T06:45:48;36.20;;;15.50;;
2023;SDS011;1016;48.770;9.154;2023-02-15T06:48:16;33.20;;;15.33;;
2023;SDS011;1016;48.770;9.154;2023-02-15T06:50:42;33.20;;;14.83;;
2023;SDS011;1016;48.770;9.154;2023-02-15T06:53:07;33.43;;;15.17;;
2023;SDS011;1016;48.770;9.154;2023-02-15T06:55:33;32.70;;;15.10;;
2023;SDS011;1016;48.770;9.154;2023-02-15T06:57:58;32.50;;;14.77;;
2023;SDS011;1016;48.770;9.154;2023-02-15T07:00:24;32.60;;;13.60;;
2023;SDS011;1016;48.770;9.154;2023-02-15T07:02:53;34.17;;;15.17;;
2023;SDS011;1016;48.770;9.154;2023-02-15T07:05:23;33.83;;;15.17;;
2023;SDS011;1016;48.770;9.154;2023-02-15T07:07:49;32.70;;;14.40;;
2023;SDS011;1016;48.770;9.154;2023-02-15T07:10:14;34.43;;;14.27;;
2023;SDS011;1016;48.770;9.154;2023-02-15T07:12:40;33.53;;;14.67;;
2023;SDS011;1016;48.770;9.154;2023-02-15T07:15:07;33.07;;;14.30;;
2023;SDS011;1016;48.770;9.154;2023-02-15T07:17:40;32.60;;;15.40;;
2023;SDS011;1016;48.770;9.154;2023-02-15T07:20:07;32.97;;;15.33;;
2023;SDS011;1016;48.770;9.154;2023-02-15T07:22:38;35.33;;;15.90;;
2023;SDS011;1016;48.770;9.154;2023-02-15T07:25:05;31.93;;;15.00;;
2023;SDS011;1016;48.770;9.154;2023-02-15T07:27:32;33.30;;;15.30;;
2023;SDS011;1016;48.770;9.154;2023-02-15T07:29:58;34.90;;;15.47;;
2023;SDS011;1016;48.770;9.154;2023-02-15T07:32:26;34.13;;;15.60;;
2023;SDS011;1016;48.770;9.154;2023-02-15T07:34:53;39.83;;;16.90;;
2023;SDS011;1016;48.770;9.154;2023-02-15T07:37:19;36.53;;;15.90;;
2023;SDS011;1016;48.770;9.154;2023-02-15T07:39:44;36.27;;;15.67;;
2023;SDS011;1016;48.770;9.154;2023-02-15T07:42:10;37.17;;;16.47;;
2023;SDS011;1016;48.770;9.154;2023-02-15T07:44:35;38.27;;;16.47;;
2023;SDS011;1016;48.770;9.154;2023-02-15T07:47:01;40.10;;;16.10;;
2023;SDS011;1016;48.770;9.154;2023-02-15T07:49:27;35.07;;;15.93;;
2023;SDS011;1016;48.770;9.154;2023-02-15T07:51:52;35.33;;;15.87;;
2023;SDS011;1016;48.770;9.154;2023-02-15T07:54:18;37.10;;;16.93;;
2023;SDS011;1016;48.770;9.154;2023-02-15T07:56:44;36.57;;;16.20;;
2023;SDS011;1016;48.770;9.154;2023-02-15T07:59:09;39.00;;;17.33;;
2023;SDS011;1016;48.770;9.154;2023-02-15T08:01:35;35.40;;;16.77;;
2023;SDS011;1016;48.770;9.154;2023-02-15T08:04:03;36.40;;;16.90;;
2023;SDS011;1016;48.770;9.154;2023-02-15T08:06:31;35.50;;;15.77;;
2023;SDS011;1016;48.770;9.154;2023-02-15T08:08:58;36.00;;;16.23;;
2023;SDS011;1016;48.770;9.154;2023-02-15T08:11:26;35.40;;;16.40;;
2023;SDS011;1016;48.770;9.154;2023-02-15T08:13:58;36.43;;;16.70;;
2023;SDS011;1016;48.770;9.154;2023-02-15T08:19:09;35.20;;;16.80;;
2023;SDS011;1016;48.770;9.154;2023-02-15T08:21:41;36.80;;;16.70;;
2023;SDS011;1016;48.770;9.154;2023-02-15T08:24:08;35.70;;;16.50;;
2023;SDS011;1016;48.770;9.154;2023-02-15T08:26:35;38.30;;;18.27;;
2023;SDS011;1016;48.770;9.154;2023-02-15T08:29:03;41.97;;;19.00;;
2023;SDS011;1016;48.770;9.154;2023-02-15T08:31:29;39.87;;;18.17;;
2023;SDS011;1016;48.770;9.154;2023-02-15T08:33:55;35.90;;;17.00;;
2023;SDS011;1016;48.770;9.154;2023-02-15T08:36:23;34.10;;;16.47;;
2023;SDS011;1016;48.770;9.154;2023-02-15T08:38:50;39.93;;;17.43;;
2023;SDS011;1016;48.770;9.154;2023-02-15T08:41:17;35.77;;;17.03;;
2023;SDS011;1016;48.770;9.154;2023-02-15T08:43:48;40.10;;;17.13;;
2023;SDS011;1016;48.770;9.154;2023-02-15T08:46:16;40.10;;;18.17;;
2023;SDS011;1016;48.770;9.154;2023-02-15T08:48:43;35.73;;;17.23;;
2023;SDS011;1016;48.770;9.154;2023-02-15T08:51:10;39.30;;;17.50;;
2023;SDS011;1016;48.770;9.154;2023-02-15T08:53:37;40.10;;;18.97;;
2023;SDS011;1016;48.770;9.154;2023-02-15T08:56:04;40.90;;;18.57;;
2023;SDS011;1016;48.770;9.154;2023-02-15T08:58:30;37.63;;;18.47;;
2023;SDS011;1016;48.770;9.154;2023-02-15T09:00:56;37.77;;;18.20;;
2023;SDS011;1016;48.770;9.154;2023-02-15T09:03:22;35.70;;;17.87;;
2023;SDS011;1016;48.770;9.154;2023-02-15T09:05:48;39.23;;;17.80;;
2023;SDS011;1016;48.770;9.154;2023-02-15T09:08:14;43.67;;;19.87;;
2023;SDS011;1016;48.770;9.154;2023-02-15T09:10:39;37.10;;;17.57;;
2023;SDS011;1016;48.770;9.154;2023-02-15T09:13:05;34.67;;;17.77;;
2023;SDS011;1016;48.770;9.154;2023-02-15T09:15:30;39.93;;;18.57;;
2023;SDS011;1016;48.770;9.154;2023-02-15T09:17:56;37.70;;;17.90;;
2023;SDS011;1016;48.770;9.154;2023-02-15T09:20:24;39.83;;;18.40;;
2023;SDS011;1016;48.770;9.154;2023-02-15T09:22:51;36.20;;;19.33;;
2023;SDS011;1016;48.770;9.154;2023-02-15T09:25:17;35.87;;;17.07;;
2023;SDS011;1016;48.770;9.154;2023-02-15T09:27:43;39.17;;;19.77;;
2023;SDS011;1016;48.770;9.154;2023-02-15T09:30:09;38.90;;;20.17;;
2023;SDS011;1016;48.770;9.154;2023-02-15T09:32:34;39.00;;;19.07;;
2023;SDS011;1016;48.770;9.154;2023-02-15T09:35:00;38.37;;;19.70;;
2023;SDS011;1016;48.770;9.154;2023-02-15T09:37:25;41.87;;;18.90;;
2023;SDS011;1016;48.770;9.154;2023-02-15T09:39:51;42.33;;;20.50;;
2023;SDS011;1016;48.770;9.154;2023-02-15T09:56:31;37.53;;;18.70;;
2023;SDS011;1016;48.770;9.154;2023-02-15T10:01:50;41.23;;;19.00;;
2023;SDS011;1016;48.770;9.154;2023-02-15T10:10:30;67.77;;;19.93;;
2023;SDS011;1016;48.770;9.154;2023-02-15T10:13:22;57.23;;;20.03;;
2023;SDS011;1016;48.770;9.154;2023-02-15T10:16:04;39.83;;;19.70;;
2023;SDS011;1016;48.770;9.154;2023-02-15T10:21:28;38.73;;;19.10;;
2023;SDS011;1016;48.770;9.154;2023-02-15T10:24:25;41.20;;;18.93;;
2023;SDS011;1016;48.770;9.154;2023-02-15T10:27:03;38.57;;;20.57;;
2023;SDS011;1016;48.770;9.154;2023-02-15T10:29:38;39.23;;;19.97;;
2023;SDS011;1016;48.770;9.154;2023-02-15T10:32:16;39.97;;;20.97;;
2023;SDS011;1016;48.770;9.154;2023-02-15T10:34:52;44.80;;;21.00;;
2023;SDS011;1016;48.770;9.154;2023-02-15T10:37:46;41.37;;;20.57;;
2023;SDS011;1016;48.770;9.154;2023-02-15T10:46:13;43.27;;;21.60;;
2023;SDS011;1016;48.770;9.154;2023-02-15T11:03:30;43.13;;;22.13;;
2023;SDS011;1016;48.770;9.154;2023-02-15T11:05:56;46.73;;;22.47;;
2023;SDS011;1016;48.770;9.154;2023-02-15T11:08:32;43.70;;;22.40;;
2023;SDS011;1016;48.770;9.154;2023-02-15T11:13:48;42.70;;;21.03;;
2023;SDS011;1016;48.770;9.154;2023-02-15T11:16:22;43.10;;;23.03;;
2023;SDS011;1016;48.770;9.154;2023-02-15T11:18:59;41.67;;;21.60;;
2023;SDS011;1016;48.770;9.154;2023-02-15T11:21:32;42.20;;;22.77;;
2023;SDS011;1016;48.770;9.154;2023-02-15T11:26:43;41.20;;;21.83;;
2023;SDS011;1016;48.770;9.154;2023-02-15T11:31:57;39.80;;;22.57;;
2023;SDS011;1016;48.770;9.154;2023-02-15T11:36:54;43.60;;;23.30;;
2023;SDS011;1016;48.770;9.154;2023-02-15T11:39:24;44.33;;;22.57;;
2023;SDS011;1016;48.770;9.154;2023-02-15T11:41:55;41.80;;;21.63;;
2023;SDS011;1016;48.770;9.154;2023-02-15T11:44:54;44.00;;;22.93;;
2023;SDS011;1016;48.770;9.154;2023-02-15T11:47:51;42.50;;;22.43;;
2023;SDS011;1016;48.770;9.154;2023-02-15T11:50:19;43.73;;;22.23;;
2023;SDS011;1016;48.770;9.154;2023-02-15T11:52:49;42.43;;;22.50;;
2023;SDS011;1016;48.770;9.154;2023-02-15T11:55:20;42.87;;;22.77;;
2023;SDS011;1016;48.770;9.154;2023-02-15T11:57:54;43.50;;;23.03;;
2023;SDS011;1016;48.770;9.154;2023-02-15T12:00:44;43.07;;;22.43;;
2023;SDS011;1016;48.770;9.154;2023-02-15T12:03:14;42.10;;;22.27;;
2023;SDS011;1016;48.770;9.154;2023-02-15T12:05:44;41.60;;;22.63;;
2023;SDS011;1016;48.770;9.154;2023-02-15T12:08:15;40.53;;;22.17;;
2023;SDS011;1016;48.770;9.154;2023-02-15T12:11:00;44.97;;;23.27;;
2023;SDS011;1016;48.770;9.154;2023-02-15T12:14:00;44.90;;;24.83;;
2023;SDS011;1016;48.770;9.154;2023-02-15T12:16:28;46.37;;;24.70;;
2023;SDS011;1016;48.770;9.154;2023-02-15T12:18:57;56.43;;;24.27;;
2023;SDS011;1016;48.770;9.154;2023-02-15T12:21:26;44.90;;;24.13;;
2023;SDS011;1016;48.770;9.154;2023-02-15T12:24:00;42.23;;;23.50;;
2023;SDS011;1016;48.770;9.154;2023-02-15T12:26:34;43.10;;;23.40;;
2023;SDS011;1016;48.770;9.154;2023-02-15T12:29:06;41.13;;;22.97;;
2023;SDS011;1016;48.770;9.154;2023-02-15T12:31:39;41.97;;;23.40;;
2023;SDS011;1016;48.770;9.154;2023-02-15T12:34:11;41.27;;;23.00;;
2023;SDS011;1016;48.770;9.154;2023-02-15T12:36:48;47.63;;;24.10;;
2023;SDS011;1016;48.770;9.154;2023-02-15T12:39:20;47.90;;;23.57;;
2023;SDS011;1016;48.770;9.154;2023-02-15T12:44:20;42.57;;;25.27;;
2023;SDS011;1016;48.770;9.154;2023-02-15T12:47:18;45.60;;;24.70;;
2023;SDS011;1016;48.770;9.154;2023-02-15T12:49:44;45.83;;;25.93;;
2023;SDS011;1016;48.770;9.154;2023-02-15T12:52:48;44.00;;;25.07;;
2023;SDS011;1016;48.770;9.154;2023-02-15T13:00:42;41.87;;;23.60;;
2023;SDS011;1016;48.770;9.154;2023-02-15T13:03:15;42.03;;;23.70;;
2023;SDS011;1016;48.770;9.154;2023-02-15T13:05:51;42.30;;;23.67;;
2023;SDS011;1016;48.770;9.154;2023-02-15T13:08:20;44.17;;;22.90;;
2023;SDS011;1016;48.770;9.154;2023-02-15T13:13:24;43.83;;;23.40;;
2023;SDS011;1016;48.770;9.154;2023-02-15T13:15:53;45.03;;;22.40;;
2023;SDS011;1016;48.770;9.154;2023-02-15T13:18:29;41.60;;;23.97;;
2023;SDS011;1016;48.770;9.154;2023-02-15T13:21:04;43.00;;;23.10;;
2023;SDS011;1016;48.770;9.154;2023-02-15T13:23:36;43.60;;;23.93;;
2023;SDS011;1016;48.770;9.154;2023-02-15T13:26:03;40.47;;;23.47;;
2023;SDS011;1016;48.770;9.154;2023-02-15T13:28:39;38.83;;;22.83;;
2023;SDS011;1016;48.770;9.154;2023-02-15T13:31:15;39.70;;;22.73;;
2023;SDS011;1016;48.770;9.154;2023-02-15T13:33:46;42.80;;;24.93;;
2023;SDS011;1016;48.770;9.154;2023-02-15T13:36:19;91.13;;;24.70;;
2023;SDS011;1016;48.770;9.154;2023-02-15T13:41:29;38.92;;;23.25;;
2023;SDS011;1016;48.770;9.154;2023-02-15T13:44:24;38.20;;;23.30;;
2023;SDS011;1016;48.770;9.154;2023-02-15T13:50:15;37.23;;;21.87;;
2023;SDS011;1016;48.770;9.154;2023-02-15T14:04:46;41.43;;;23.30;;
2023;SDS011;1016;48.770;9.154;2023-02-15T14:10:19;42.30;;;22.43;;
2023;SDS011;1016;48.770;9.154;2023-02-15T14:16:09;42.40;;;22.60;;
2023;SDS011;1016;48.770;9.154;2023-02-15T14:19:04;42.30;;;23.90;;
2023;SDS011;1016;48.770;9.154;2023-02-15T14:22:00;43.10;;;24.73;;
2023;SDS011;1016;48.770;9.154;2023-02-15T14:24:38;44.00;;;24.80;;
2023;SDS011;1016;48.770;9.154;2023-02-15T14:29:59;39.80;;;22.97;;
2023;SDS011;1016;48.770;9.154;2023-02-15T14:32:41;44.33;;;25.10;;
2023;SDS011;1016;48.770;9.154;2023-02-15T14:35:17;41.20;;;23.63;;
2023;SDS011;1016;48.770;9.154;2023-02-15T14:37:58;43.57;;;23.17;;
2023;SDS011;1016;48.770;9.154;2023-02-15T14:40:34;42.90;;;23.13;;
2023;SDS011;1016;48.770;9.154;2023-02-15T14:46:15;43.10;;;22.17;;
2023;SDS011;1016;48.770;9.154;2023-02-15T14:56:42;43.60;;;22.47;;
2023;SDS011;1016;48.770;9.154;2023-02-15T14:59:21;41.87;;;21.47;;
2023;SDS011;1016;48.770;9.154;2023-02-15T15:01:55;38.93;;;20.47;;
2023;SDS011;1016;48.770;9.154;2023-02-15T15:09:35;39.53;;;19.73;;
2023;SDS011;1016;48.770;9.154;2023-02-15T15:12:14;37.23;;;18.20;;
2023;SDS011;1016;48.770;9.154;2023-02-15T15:14:46;36.20;;;17.63;;
2023;SDS011;1016;48.770;9.154;2023-02-15T15:19:58;37.90;;;19.37;;
2023;SDS011;1016;48.770;9.154;2023-02-15T15:22:34;37.50;;;18.10;;
2023;SDS011;1016;48.770;9.154;2023-02-15T15:25:02;38.00;;;19.80;;
2023;SDS011;1016;48.770;9.154;2023-02-15T15:35:44;38.07;;;18.80;;
2023;SDS011;1016;48.770;9.154;2023-02-15T15:38:54;38.67;;;19.13;;
2023;SDS011;1016;48.770;9.154;2023-02-15T15:49:45;42.13;;;22.03;;
2023;SDS011;1016;48.770;9.154;2023-02-15T15:52:15;39.40;;;19.80;;
2023;SDS011;1016;48.770;9.154;2023-02-15T15:54:44;40.27;;;19.40;;
2023;SDS011;1016;48.770;9.154;2023-02-15T15:57:22;37.60;;;18.93;;
2023;SDS011;1016;48.770;9.154;2023-02-15T15:59:56;38.47;;;19.20;;
2023;SDS011;1016;48.770;9.154;2023-02-15T16:02:25;37.47;;;18.10;;
2023;SDS011;1016;48.770;9.154;2023-02-15T16:04:51;37.70;;;19.10;;
2023;SDS011;1016;48.770;9.154;2023-02-15T16:10:04;37.20;;;18.63;;
2023;SDS011;1016;48.770;9.154;2023-02-15T16:12:45;40.90;;;19.00;;
2023;SDS011;1016;48.770;9.154;2023-02-15T16:15:14;37.97;;;18.40;;
2023;SDS011;1016;48.770;9.154;2023-02-15T16:17:43;45.87;;;23.90;;
2023;SDS011;1016;48.770;9.154;2023-02-15T16:22:46;38.87;;;19.93;;
2023;SDS011;1016;48.770;9.154;2023-02-15T16:27:53;37.27;;;19.17;;
2023;SDS011;1016;48.770;9.154;2023-02-15T16:30:20;38.40;;;18.97;;
2023;SDS011;1016;48.770;9.154;2023-02-15T16:32:46;53.30;;;27.13;;
2023;SDS011;1016;48.770;9.154;2023-02-15T16:35:13;42.77;;;22.53;;
2023;SDS011;1016;48.770;9.154;2023-02-15T16:37:41;41.87;;;19.87;;
2023;SDS011;1016;48.770;9.154;2023-02-15T16:40:53;39.60;;;19.33;;
2023;SDS011;1016;48.770;9.154;2023-02-15T16:43:14;39.30;;;19.63;;
2023;SDS011;1016;48.770;9.154;2023-02-15T16:45:43;36.57;;;19.27;;
2023;SDS011;1016;48.770;9.154;2023-02-15T16:48:12;38.60;;;19.50;;
2023;SDS011;1016;48.770;9.154;2023-02-15T16:50:45;38.60;;;19.60;;
2023;SDS011;1016;48.770;9.154;2023-02-15T16:53:24;35.90;;;19.10;;
2023;SDS011;1016;48.770;9.154;2023-02-15T16:55:55;40.30;;;20.67;;
2023;SDS011;1016;48.770;9.154;2023-02-15T16:58:28;38.70;;;19.17;;
2023;SDS011;1016;48.770;9.154;2023-02-15T17:01:06;39.23;;;19.60;;
2023;SDS011;1016;48.770;9.154;2023-02-15T17:03:35;46.80;;;20.77;;
2023;SDS011;1016;48.770;9.154;2023-02-15T17:06:02;41.20;;;19.60;;
2023;SDS011;1016;48.770;9.154;2023-02-15T17:16:27;37.83;;;20.37;;
2023;SDS011;1016;48.770;9.154;2023-02-15T17:19:49;40.00;;;22.07;;
2023;SDS011;1016;48.770;9.154;2023-02-15T17:22:18;42.93;;;20.10;;
2023;SDS011;1016;48.770;9.154;2023-02-15T17:24:47;41.87;;;21.03;;
2023;SDS011;1016;48.770;9.154;2023-02-15T17:27:17;41.50;;;21.70;;
2023;SDS011;1016;48.770;9.154;2023-02-15T17:32:22;45.50;;;24.60;;
2023;SDS011;1016;48.770;9.154;2023-02-15T17:39:56;39.83;;;20.87;;
2023;SDS011;1016;48.770;9.154;2023-02-15T17:42:23;44.20;;;22.47;;
2023;SDS011;1016;48.770;9.154;2023-02-15T17:44:49;42.00;;;21.40;;
2023;SDS011;1016;48.770;9.154;2023-02-15T17:47:23;40.20;;;21.33;;
2023;SDS011;1016;48.770;9.154;2023-02-15T17:49:51;40.10;;;20.40;;
2023;SDS011;1016;48.770;9.154;2023-02-15T17:52:17;51.13;;;28.33;;
2023;SDS011;1016;48.770;9.154;2023-02-15T17:54:43;41.57;;;21.67;;
2023;SDS011;1016;48.770;9.154;2023-02-15T17:57:29;40.27;;;21.10;;
2023;SDS011;1016;48.770;9.154;2023-02-15T17:59:55;39.50;;;20.57;;
2023;SDS011;1016;48.770;9.154;2023-02-15T18:02:40;39.20;;;20.00;;
2023;SDS011;1016;48.770;9.154;2023-02-15T18:05:24;39.23;;;20.43;;